Time;durP1;ratioP1;P1;durP2;ratioP2;P2;SDS_P1;SDS_P2;PMS_P1;PMS_P2;Temp;Humidity;BMP_temperature;BMP_pressure;BME280_temperature;BME280_humidity;BME280_pressure;Samples;Min_cycle;Max_cycle;Signal;HPM_P1;HPM_P2
2023/12/31 00:00:26;;;;;;;37.10;33.50;;;;;;;3.75;100.00;97836.15;106909;1268;23957;-81
2023/12/31 00:03:14;;;;;;;36.30;32.70;;;;;;;3.79;100.00;97841.02;106556;1273;25345;-79
2023/12/31 00:05:42;;;;;;;34.00;30.70;;;;;;;3.83;100.00;97841.07;106570;1273;23088;-79
2023/12/31 00:08:11;;;;;;;35.30;31.90;;;;;;;3.88;100.00;97842.11;106569;1283;24077;-79
2023/12/31 00:10:40;;;;;;;39.30;35.60;;;;;;;3.93;100.00;97840.54;106676;1273;25393;-80
2023/12/31 00:13:08;;;;;;;42.60;38.90;;;;;;;3.98;100.00;97834.38;106653;1267;25388;-80
2023/12/31 00:15:35;;;;;;;39.80;36.20;;;;;;;4.03;100.00;97835.95;106586;1281;24780;-83
2023/12/31 00:18:04;;;;;;;37.80;34.00;;;;;;;4.05;100.00;97842.52;106581;1282;22544;-83
2023/12/31 00:20:32;;;;;;;36.20;32.80;;;;;;;4.05;100.00;97842.91;106559;1282;22542;-81
2023/12/31 00:23:00;;;;;;;37.20;33.60;;;;;;;4.07;100.00;97833.95;106604;1270;25476;-79
2023/12/31 00:25:28;;;;;;;62.30;56.40;;;;;;;4.09;100.00;97833.29;106567;1271;22589;-79
2023/12/31 00:27:56;;;;;;;40.40;36.80;;;;;;;4.09;100.00;97831.41;106568;1270;24262;-80
2023/12/31 00:30:27;;;;;;;42.70;39.00;;;;;;;4.07;100.00;97834.66;106478;1270;22550;-79
2023/12/31 00:32:55;;;;;;;50.50;45.80;;;;;;;4.02;100.00;97841.39;106658;1274;22627;-80
2023/12/31 00:35:23;;;;;;;42.10;38.30;;;;;;;3.97;100.00;97840.20;106596;1273;24288;-80
2023/12/31 00:37:51;;;;;;;43.90;40.00;;;;;;;3.91;100.00;97840.63;106625;1283;22494;-79
2023/12/31 00:40:19;;;;;;;43.20;39.30;;;;;;;3.87;100.00;97841.52;106673;1261;22543;-79
2023/12/31 00:42:47;;;;;;;43.40;39.70;;;;;;;3.85;100.00;97838.89;106565;1273;24244;-78
2023/12/31 00:45:16;;;;;;;51.10;46.40;;;;;;;3.79;100.00;97837.95;106635;1277;25413;-80
2023/12/31 00:47:44;;;;;;;48.30;43.70;;;;;;;3.75;100.00;97844.63;106645;1269;25385;-80
2023/12/31 00:50:12;;;;;;;45.20;41.00;;;;;;;3.66;100.00;97842.31;106624;1270;22540;-81
2023/12/31 00:52:40;;;;;;;43.60;39.60;;;;;;;3.50;100.00;97841.94;106930;1283;23887;-79
2023/12/31 00:55:08;;;;;;;45.00;40.70;;;;;;;3.41;100.00;97844.52;107010;1273;25344;-82
2023/12/31 00:57:36;;;;;;;42.10;38.10;;;;;;;3.35;100.00;97845.90;106631;1270;22587;-80
2023/12/31 01:00:05;;;;;;;52.30;47.30;;;;;;;3.27;100.00;97851.70;106484;1277;24590;-78
2023/12/31 01:02:33;;;;;;;51.50;46.50;;;;;;;3.17;100.00;97854.84;106562;1277;22536;-79
2023/12/31 01:05:01;;;;;;;53.90;48.60;;;;;;;3.00;100.00;97856.38;106550;1283;23193;-79
2023/12/31 01:07:29;;;;;;;49.70;45.40;;;;;;;2.91;100.00;97855.44;106570;1283;22547;-80
2023/12/31 01:09:57;;;;;;;51.70;47.00;;;;;;;2.84;100.00;97854.02;106602;1280;23902;-80
2023/12/31 01:12:26;;;;;;;43.10;39.00;;;;;;;2.76;100.00;97858.25;106609;1260;24416;-79
2023/12/31 01:14:54;;;;;;;43.10;38.80;;;;;;;2.67;100.00;97853.14;106563;1276;25540;-79
2023/12/31 01:17:22;;;;;;;41.90;37.50;;;;;;;2.54;100.00;97847.31;106533;1274;22581;-80
2023/12/31 01:19:50;;;;;;;38.60;34.70;;;;;;;2.49;100.00;97844.01;106528;1270;25485;-78
2023/12/31 01:22:18;;;;;;;41.00;37.00;;;;;;;2.47;100.00;97843.39;106479;1280;24281;-78
2023/12/31 01:24:46;;;;;;;44.10;39.90;;;;;;;2.44;100.00;97842.71;106545;1270;22564;-78
2023/12/31 01:27:14;;;;;;;40.10;36.30;;;;;;;2.39;100.00;97843.67;106697;1275;23894;-82
2023/12/31 01:29:42;;;;;;;40.20;36.30;;;;;;;2.34;100.00;97839.29;106532;1270;22563;-78
2023/12/31 01:32:10;;;;;;;40.60;36.60;;;;;;;2.27;100.00;97836.75;107391;1277;25676;-80
2023/12/31 01:34:38;;;;;;;42.40;38.30;;;;;;;2.22;100.00;97832.87;106413;1277;22553;-79
2023/12/31 01:37:06;;;;;;;61.10;55.80;;;;;;;2.07;100.00;97831.70;106549;1270;23921;-78
2023/12/31 01:39:34;;;;;;;42.80;38.60;;;;;;;1.93;100.00;97835.24;106556;1260;25611;-80
2023/12/31 01:42:03;;;;;;;38.90;34.90;;;;;;;1.78;100.00;97837.36;106294;1283;22693;-81
2023/12/31 01:44:31;;;;;;;39.40;35.20;;;;;;;1.65;100.00;97835.52;106599;1283;22666;-80
2023/12/31 01:46:59;;;;;;;35.90;32.50;;;;;;;1.59;100.00;97839.20;106356;1273;24380;-80
2023/12/31 01:49:30;;;;;;;37.70;34.10;;;;;;;1.58;100.00;97841.72;106737;1275;24350;-79
2023/12/31 01:51:58;;;;;;;42.30;38.20;;;;;;;1.57;100.00;97840.55;106749;1277;23358;-79
2023/12/31 01:54:28;;;;;;;60.30;55.00;;;;;;;1.47;100.00;97844.27;106842;1273;22537;-78
2023/12/31 01:56:56;;;;;;;44.50;40.40;;;;;;;1.38;100.00;97837.73;106711;1276;22593;-79
2023/12/31 01:59:25;;;;;;;41.20;37.10;;;;;;;1.32;100.00;97841.36;106584;1277;22538;-78
2023/12/31 02:01:54;;;;;;;37.30;33.80;;;;;;;1.24;100.00;97842.08;106296;1277;25364;-80
2023/12/31 02:04:32;;;;;;;35.20;31.50;;;;;;;1.20;100.00;97840.66;106623;1282;24263;-80
2023/12/31 02:07:01;;;;;;;35.10;31.50;;;;;;;1.21;100.00;97837.04;106661;1270;22607;-79
2023/12/31 02:09:29;;;;;;;41.80;37.90;;;;;;;1.19;100.00;97839.59;106724;1276;25444;-80
2023/12/31 02:11:58;;;;;;;37.50;34.00;;;;;;;1.15;100.00;97841.02;106619;1280;22671;-80
2023/12/31 02:14:27;;;;;;;40.70;36.80;;;;;;;1.12;100.00;97838.84;106508;1283;23409;-80
2023/12/31 02:16:55;;;;;;;48.20;43.60;;;;;;;1.05;100.00;97841.86;106595;1269;22599;-80
2023/12/31 02:19:23;;;;;;;47.00;42.50;;;;;;;0.94;100.00;97845.20;106643;1273;25280;-79
2023/12/31 02:21:52;;;;;;;45.20;40.70;;;;;;;0.85;100.00;97838.36;106596;1280;22628;-77
2023/12/31 02:24:24;;;;;;;41.40;37.30;;;;;;;0.84;100.00;97838.30;106390;1273;22584;-79
2023/12/31 02:26:51;;;;;;;49.30;44.60;;;;;;;0.84;100.00;97835.70;106514;1276;25279;-79
2023/12/31 02:29:19;;;;;;;46.60;42.40;;;;;;;0.78;100.00;97831.29;106573;1268;25349;-80
2023/12/31 02:31:47;;;;;;;45.10;40.90;;;;;;;0.74;100.00;97826.59;106743;1277;22543;-80
2023/12/31 02:34:15;;;;;;;49.10;44.50;;;;;;;0.67;100.00;97829.75;106674;1280;25264;-79
2023/12/31 02:36:43;;;;;;;44.50;40.30;;;;;;;0.60;100.00;97826.70;106682;1280;25360;-78
2023/12/31 02:39:11;;;;;;;39.30;35.70;;;;;;;0.59;100.00;97827.30;106623;1280;23435;-79
2023/12/31 02:41:39;;;;;;;40.30;36.50;;;;;;;0.59;100.00;97826.11;106576;1273;25382;-80
2023/12/31 02:44:07;;;;;;;41.50;37.40;;;;;;;0.59;100.00;97824.24;106667;1270;22584;-79
2023/12/31 02:46:35;;;;;;;45.10;41.10;;;;;;;0.57;100.00;97821.77;106552;1266;22564;-80
2023/12/31 02:49:06;;;;;;;47.70;43.40;;;;;;;0.54;100.00;97818.05;106646;1270;24146;-78
2023/12/31 02:51:34;;;;;;;51.40;46.90;;;;;;;0.50;100.00;97816.85;106599;1271;23929;-78
2023/12/31 02:54:03;;;;;;;48.10;43.80;;;;;;;0.43;100.00;97820.33;106330;1268;24243;-80
2023/12/31 02:56:31;;;;;;;42.00;38.10;;;;;;;0.41;100.00;97817.02;106606;1277;22593;-78
2023/12/31 02:58:59;;;;;;;36.80;33.30;;;;;;;0.39;100.00;97823.49;106580;1272;22863;-80
2023/12/31 03:01:27;;;;;;;38.60;34.90;;;;;;;0.43;100.00;97826.84;106467;1280;25874;-82
2023/12/31 03:03:55;;;;;;;32.50;29.40;;;;;;;0.44;100.00;97823.69;106448;1268;22549;-84
2023/12/31 03:06:28;;;;;;;39.90;36.20;;;;;;;0.45;100.00;97828.23;106535;1283;24403;-83
2023/12/31 03:08:58;;;;;;;42.60;38.70;;;;;;;0.43;100.00;97829.49;106518;1273;24400;-83
2023/12/31 03:11:28;;;;;;;50.50;45.90;;;;;;;0.36;100.00;97832.61;106441;1276;23932;-82
2023/12/31 03:13:56;;;;;;;44.50;40.40;;;;;;;0.29;100.00;97830.32;106541;1272;22555;-83
2023/12/31 03:16:25;;;;;;;37.30;33.90;;;;;;;0.23;100.00;97829.41;106504;1272;22781;-79
2023/12/31 03:18:54;;;;;;;36.70;33.50;;;;;;;0.22;100.00;97830.04;106234;1277;25440;-78
2023/12/31 03:21:22;;;;;;;35.00;31.60;;;;;;;0.23;100.00;97827.66;106404;1274;24224;-78
2023/12/31 03:23:51;;;;;;;34.10;30.90;;;;;;;0.20;100.00;97820.70;106192;1269;22579;-78
2023/12/31 03:26:19;;;;;;;35.70;32.20;;;;;;;0.18;100.00;97821.69;106097;1273;24265;-79
2023/12/31 03:28:48;;;;;;;37.60;34.10;;;;;;;0.19;100.00;97822.34;106430;1273;25322;-78
2023/12/31 03:31:16;;;;;;;38.80;35.40;;;;;;;0.23;100.00;97818.23;106484;1270;22536;-79
2023/12/31 03:33:46;;;;;;;42.90;39.00;;;;;;;0.19;100.00;97813.05;106568;1273;22557;-79
2023/12/31 03:36:16;;;;;;;39.10;35.50;;;;;;;0.13;100.00;97818.18;106510;1276;22551;-77
2023/12/31 03:38:43;;;;;;;32.30;29.30;;;;;;;0.17;100.00;97820.59;106292;1270;22779;-81
2023/12/31 03:41:12;;;;;;;32.20;29.30;;;;;;;0.27;100.00;97817.88;106547;1277;25394;-76
2023/12/31 03:43:41;;;;;;;34.10;30.80;;;;;;;0.36;100.00;97819.55;106235;1283;22686;-79
2023/12/31 03:46:09;;;;;;;36.50;33.10;;;;;;;0.43;100.00;97817.67;106509;1268;22542;-77
2023/12/31 03:48:38;;;;;;;38.30;34.40;;;;;;;0.46;100.00;97818.96;106382;1273;22698;-77
2023/12/31 03:51:08;;;;;;;37.60;34.20;;;;;;;0.46;100.00;97822.92;106096;1283;24311;-77
2023/12/31 03:53:36;;;;;;;55.70;51.10;;;;;;;0.45;100.00;97823.77;106481;1283;24736;-77
2023/12/31 03:56:04;;;;;;;41.60;38.00;;;;;;;0.41;100.00;97826.08;106264;1261;25630;-76
2023/12/31 03:58:32;;;;;;;34.00;30.90;;;;;;;0.38;100.00;97824.21;106254;1273;22543;-80
2023/12/31 04:01:00;;;;;;;35.90;32.60;;;;;;;0.41;100.00;97826.12;106618;1268;22651;-80
2023/12/31 04:03:29;;;;;;;33.00;29.90;;;;;;;0.48;100.00;97824.98;106501;1273;22697;-79
2023/12/31 04:05:57;;;;;;;33.70;30.50;;;;;;;0.53;100.00;97825.76;106457;1282;23891;-80
2023/12/31 04:08:25;;;;;;;38.40;35.00;;;;;;;0.49;100.00;97820.70;106476;1283;22537;-80
2023/12/31 04:10:53;;;;;;;43.10;39.30;;;;;;;0.41;100.00;97822.42;106397;1283;24272;-79
2023/12/31 04:13:22;;;;;;;32.80;29.70;;;;;;;0.36;100.00;97819.66;106416;1279;22703;-80
2023/12/31 04:15:50;;;;;;;43.00;39.10;;;;;;;0.28;100.00;97824.06;106472;1276;22540;-79
2023/12/31 04:18:18;;;;;;;35.10;32.10;;;;;;;0.25;100.00;97823.66;106576;1283;24336;-79
2023/12/31 04:20:46;;;;;;;33.20;30.30;;;;;;;0.19;100.00;97824.46;106722;1269;24095;-78
2023/12/31 04:23:14;;;;;;;33.10;29.80;;;;;;;0.15;100.00;97828.77;106882;1283;25449;-79
2023/12/31 04:25:42;;;;;;;35.60;32.20;;;;;;;0.14;100.00;97828.11;106404;1272;24231;-80
2023/12/31 04:28:10;;;;;;;42.40;38.70;;;;;;;0.16;100.00;97829.96;106556;1270;24303;-79
2023/12/31 04:30:40;;;;;;;45.20;41.30;;;;;;;0.16;100.00;97833.35;106422;1281;22537;-79
2023/12/31 04:33:08;;;;;;;48.40;44.40;;;;;;;0.14;100.00;97830.60;106612;1273;23500;-80
2023/12/31 04:35:36;;;;;;;41.90;37.90;;;;;;;0.14;100.00;97833.04;106481;1283;23895;-82
2023/12/31 04:38:04;;;;;;;37.90;34.40;;;;;;;0.24;100.00;97828.00;106573;1276;22628;-79
2023/12/31 04:40:32;;;;;;;34.60;31.40;;;;;;;0.35;100.00;97822.45;106442;1277;22565;-79
2023/12/31 04:43:00;;;;;;;36.30;32.80;;;;;;;0.41;100.00;97817.42;106430;1283;22562;-79
2023/12/31 04:45:29;;;;;;;35.40;32.00;;;;;;;0.36;100.00;97817.45;106394;1273;22546;-79
2023/12/31 04:47:57;;;;;;;34.90;31.70;;;;;;;0.36;100.00;97813.90;106299;1283;22559;-79
2023/12/31 04:50:25;;;;;;;36.40;33.10;;;;;;;0.39;100.00;97811.98;106428;1270;22565;-82
2023/12/31 04:52:55;;;;;;;41.80;37.90;;;;;;;0.48;100.00;97818.35;106329;1283;24251;-80
2023/12/31 04:55:23;;;;;;;35.70;32.10;;;;;;;0.55;100.00;97820.14;106590;1283;22675;-80
2023/12/31 04:57:51;;;;;;;35.30;32.20;;;;;;;0.55;100.00;97819.92;106541;1283;22665;-80
2023/12/31 05:00:19;;;;;;;33.50;30.30;;;;;;;0.50;100.00;97818.55;106568;1280;22717;-80
2023/12/31 05:02:47;;;;;;;29.20;26.40;;;;;;;0.48;100.00;97813.31;106497;1283;22575;-81
2023/12/31 05:05:15;;;;;;;30.10;27.30;;;;;;;0.49;100.00;97815.93;106510;1284;23952;-81
2023/12/31 05:07:43;;;;;;;29.80;26.90;;;;;;;0.51;100.00;97810.20;106557;1282;22547;-81
2023/12/31 05:10:11;;;;;;;27.90;25.10;;;;;;;0.52;100.00;97808.84;106573;1273;25293;-80
2023/12/31 05:12:39;;;;;;;29.30;26.50;;;;;;;0.55;100.00;97806.02;106579;1283;22600;-79
2023/12/31 05:15:07;;;;;;;29.40;26.60;;;;;;;0.55;100.00;97803.60;106522;1268;22551;-79
2023/12/31 05:17:35;;;;;;;31.70;28.70;;;;;;;0.60;100.00;97799.66;106539;1283;24225;-79
2023/12/31 05:20:04;;;;;;;27.70;24.90;;;;;;;0.64;100.00;97797.30;106566;1268;22754;-79
2023/12/31 05:22:32;;;;;;;29.30;26.50;;;;;;;0.68;100.00;97795.78;106551;1274;22543;-79
2023/12/31 05:25:00;;;;;;;26.00;23.40;;;;;;;0.69;100.00;97796.37;106495;1283;24240;-79
2023/12/31 05:27:28;;;;;;;27.60;24.90;;;;;;;0.69;100.00;97788.95;106514;1283;22557;-79
2023/12/31 05:29:57;;;;;;;26.40;23.70;;;;;;;0.70;100.00;97790.55;106541;1268;25369;-79
2023/12/31 05:32:26;;;;;;;26.80;24.20;;;;;;;0.75;100.00;97787.58;106572;1272;22559;-81
2023/12/31 05:34:54;;;;;;;26.00;23.40;;;;;;;0.82;100.00;97784.98;106679;1273;22636;-79
2023/12/31 05:37:22;;;;;;;30.50;27.50;;;;;;;0.88;100.00;97785.54;106617;1283;25390;-80
2023/12/31 05:39:50;;;;;;;28.50;25.70;;;;;;;0.93;100.00;97785.19;106514;1273;22563;-80
2023/12/31 05:42:18;;;;;;;29.20;26.30;;;;;;;0.98;100.00;97779.70;106498;1268;22536;-80
2023/12/31 05:44:46;;;;;;;31.90;28.70;;;;;;;1.02;100.00;97778.02;106552;1277;22618;-80
2023/12/31 05:47:14;;;;;;;30.70;28.00;;;;;;;1.04;100.00;97782.30;106673;1282;24208;-79
2023/12/31 05:50:02;;;;;;;31.00;27.90;;;;;;;1.06;100.00;97774.73;106578;1283;22574;-79
2023/12/31 05:52:31;;;;;;;33.80;30.70;;;;;;;1.03;100.00;97771.81;106530;1283;22547;-80
2023/12/31 05:54:59;;;;;;;37.40;34.00;;;;;;;0.93;100.00;97768.79;106479;1272;25369;-79
2023/12/31 05:57:27;;;;;;;38.80;35.30;;;;;;;0.82;100.00;97768.77;106502;1283;22567;-79
2023/12/31 05:59:55;;;;;;;37.40;34.00;;;;;;;0.76;100.00;97766.80;106478;1283;24310;-79
2023/12/31 06:02:23;;;;;;;32.30;29.10;;;;;;;0.70;100.00;97761.91;106493;1273;22569;-79
2023/12/31 06:04:51;;;;;;;27.90;25.00;;;;;;;0.64;100.00;97756.04;106525;1273;22540;-80
2023/12/31 06:07:19;;;;;;;25.60;23.00;;;;;;;0.66;100.00;97756.54;106559;1269;25449;-80
2023/12/31 06:09:47;;;;;;;26.70;24.10;;;;;;;0.72;100.00;97754.84;106455;1278;24237;-80
2023/12/31 06:12:15;;;;;;;28.70;25.80;;;;;;;0.77;100.00;97753.98;106576;1270;22570;-80
2023/12/31 06:14:43;;;;;;;29.70;26.60;;;;;;;0.82;100.00;97755.19;106516;1270;22799;-79
2023/12/31 06:17:11;;;;;;;31.10;28.00;;;;;;;0.86;100.00;97753.08;106425;1277;22560;-78
2023/12/31 06:19:40;;;;;;;29.00;26.20;;;;;;;0.88;100.00;97749.98;106281;1283;23913;-78
2023/12/31 06:22:08;;;;;;;26.40;23.80;;;;;;;0.91;100.00;97745.98;106619;1283;22780;-79
2023/12/31 06:24:36;;;;;;;26.40;23.90;;;;;;;0.95;100.00;97745.05;106507;1274;24298;-80
2023/12/31 06:27:04;;;;;;;31.10;27.90;;;;;;;0.95;100.00;97743.84;106484;1277;22733;-79
2023/12/31 06:29:32;;;;;;;26.70;24.20;;;;;;;0.97;100.00;97738.98;106513;1283;22666;-79
2023/12/31 06:32:00;;;;;;;27.20;24.50;;;;;;;1.01;100.00;97737.20;106630;1283;23326;-80
2023/12/31 06:34:28;;;;;;;26.20;23.50;;;;;;;1.05;100.00;97732.32;106430;1282;22540;-80
2023/12/31 06:36:56;;;;;;;29.70;26.80;;;;;;;1.07;100.00;97729.39;106534;1271;22539;-80
2023/12/31 06:39:24;;;;;;;30.50;27.30;;;;;;;1.07;100.00;97727.52;106529;1268;25425;-79
2023/12/31 06:41:52;;;;;;;33.60;30.40;;;;;;;1.02;100.00;97723.10;106473;1269;22560;-79
2023/12/31 06:44:20;;;;;;;30.20;27.30;;;;;;;0.97;100.00;97723.55;106469;1283;22537;-79
2023/12/31 06:46:48;;;;;;;31.40;28.40;;;;;;;0.94;100.00;97717.91;106477;1283;22542;-79
2023/12/31 06:49:16;;;;;;;31.50;28.60;;;;;;;0.93;100.00;97714.23;106515;1269;25549;-79
2023/12/31 06:51:44;;;;;;;27.70;25.00;;;;;;;0.96;100.00;97717.73;106502;1283;25733;-79
2023/12/31 06:54:12;;;;;;;27.50;24.70;;;;;;;1.02;100.00;97714.48;106525;1282;22562;-80
2023/12/31 06:56:40;;;;;;;26.50;23.90;;;;;;;1.09;100.00;97717.69;106552;1267;22780;-80
2023/12/31 06:59:08;;;;;;;28.80;25.90;;;;;;;1.13;100.00;97716.11;106521;1283;22551;-81
2023/12/31 07:01:36;;;;;;;29.30;26.50;;;;;;;1.13;100.00;97717.27;106568;1283;22555;-82
2023/12/31 07:04:03;;;;;;;35.40;32.00;;;;;;;1.07;100.00;97718.61;106625;1270;25348;-80
2023/12/31 07:06:31;;;;;;;60.80;54.90;;;;;;;0.98;100.00;97719.73;106778;1271;22590;-79
2023/12/31 07:08:59;;;;;;;66.70;60.20;;;;;;;0.85;100.00;97717.19;107508;1283;23925;-79
2023/12/31 07:11:28;;;;;;;50.00;45.00;;;;;;;0.78;100.00;97712.69;106563;1282;22627;-80
2023/12/31 07:13:56;;;;;;;36.20;32.80;;;;;;;0.77;100.00;97713.83;106568;1282;22766;-81
2023/12/31 07:16:24;;;;;;;36.00;32.70;;;;;;;0.80;100.00;97713.33;106383;1282;25400;-81
2023/12/31 07:18:52;;;;;;;41.60;37.70;;;;;;;0.86;100.00;97714.41;106573;1282;23992;-81
2023/12/31 07:22:00;;;;;;;33.30;30.00;;;;;;;0.94;100.00;97713.30;106558;1280;22571;-81
2023/12/31 07:24:32;;;;;;;30.10;27.50;;;;;;;1.02;100.00;97708.54;106497;1266;24301;-81
2023/12/31 07:27:00;;;;;;;26.40;23.90;;;;;;;1.09;100.00;97698.05;106475;1276;22555;-80
2023/12/31 07:29:29;;;;;;;30.80;27.00;;;;;;;1.16;100.00;97692.83;106497;1268;24327;-81
2023/12/31 07:31:58;;;;;;;24.00;21.30;;;;;;;1.27;100.00;97694.02;106437;1282;22586;-80
2023/12/31 07:34:26;;;;;;;22.00;20.00;;;;;;;1.42;100.00;97693.22;106561;1263;22553;-79
2023/12/31 07:36:54;;;;;;;20.40;18.30;;;;;;;1.56;100.00;97685.59;106538;1283;25449;-80
2023/12/31 07:39:22;;;;;;;19.50;17.10;;;;;;;1.69;100.00;97676.94;106581;1270;23443;-80
2023/12/31 07:41:50;;;;;;;19.30;16.30;;;;;;;1.81;100.00;97678.69;106571;1283;24477;-80
2023/12/31 07:44:20;;;;;;;18.60;16.20;;;;;;;1.94;100.00;97672.04;106575;1276;25385;-80
2023/12/31 07:46:49;;;;;;;16.40;14.70;;;;;;;2.06;100.00;97668.61;106550;1283;24355;-79
2023/12/31 07:49:17;;;;;;;17.80;16.00;;;;;;;2.17;100.00;97664.80;106554;1272;23917;-79
2023/12/31 07:51:45;;;;;;;17.30;15.50;;;;;;;2.27;100.00;97659.38;106626;1283;25397;-81
2023/12/31 07:54:13;;;;;;;16.80;15.00;;;;;;;2.37;100.00;97655.42;106665;1283;22607;-80
2023/12/31 07:56:41;;;;;;;16.90;15.20;;;;;;;2.48;100.00;97655.38;106419;1279;25440;-80
2023/12/31 07:59:09;;;;;;;15.80;14.30;;;;;;;2.60;100.00;97655.21;106455;1270;23655;-79
2023/12/31 08:01:37;;;;;;;16.60;14.80;;;;;;;2.72;100.00;97651.20;106379;1279;23138;-81
2023/12/31 08:04:05;;;;;;;17.30;13.70;;;;;;;2.82;100.00;97650.86;106567;1270;24444;-79
2023/12/31 08:06:33;;;;;;;15.20;13.70;;;;;;;2.91;100.00;97640.08;106473;1270;22809;-80
2023/12/31 08:09:01;;;;;;;16.70;15.00;;;;;;;3.00;100.00;97638.83;106393;1273;25274;-80
2023/12/31 08:11:30;;;;;;;17.80;15.70;;;;;;;3.06;100.00;97638.27;106529;1283;24372;-80
2023/12/31 08:13:58;;;;;;;18.70;16.80;;;;;;;3.10;100.00;97635.52;106583;1270;24243;-80
2023/12/31 08:16:26;;;;;;;18.70;16.70;;;;;;;3.14;100.00;97635.66;106877;1283;22684;-80
2023/12/31 08:18:54;;;;;;;20.10;18.10;;;;;;;3.20;100.00;97632.03;107199;1273;22589;-80
2023/12/31 08:21:22;;;;;;;21.00;18.90;;;;;;;3.26;100.00;97630.67;106825;1282;22631;-79
2023/12/31 08:23:50;;;;;;;20.70;18.60;;;;;;;3.30;100.00;97631.61;106549;1276;25487;-79
2023/12/31 08:26:18;;;;;;;18.80;17.00;;;;;;;3.32;100.00;97629.36;106562;1283;24074;-79
2023/12/31 08:28:46;;;;;;;17.10;15.40;;;;;;;3.35;100.00;97626.67;106565;1283;24233;-81
2023/12/31 08:31:15;;;;;;;17.10;15.30;;;;;;;3.40;100.00;97626.80;106569;1268;25504;-80
2023/12/31 08:33:43;;;;;;;16.40;14.70;;;;;;;3.42;100.00;97626.65;106630;1270;22565;-81
2023/12/31 08:36:11;;;;;;;17.60;15.30;;;;;;;3.49;100.00;97625.50;106609;1268;22592;-80
2023/12/31 08:38:39;;;;;;;19.50;15.60;;;;;;;3.52;100.00;97626.64;106587;1283;22557;-80
2023/12/31 08:41:07;;;;;;;18.00;16.10;;;;;;;3.55;100.00;97626.39;106627;1283;22610;-80
2023/12/31 08:43:35;;;;;;;18.40;16.40;;;;;;;3.57;100.00;97621.65;106620;1283;22613;-81
2023/12/31 08:46:07;;;;;;;18.00;16.10;;;;;;;3.61;100.00;97619.55;106868;1268;24164;-79
2023/12/31 08:48:36;;;;;;;18.90;17.00;;;;;;;3.65;100.00;97623.56;106593;1270;24392;-80
2023/12/31 08:51:04;;;;;;;17.20;15.40;;;;;;;3.70;100.00;97622.13;106711;1259;22604;-80
2023/12/31 08:53:32;;;;;;;17.90;16.00;;;;;;;3.75;100.00;97619.80;106552;1283;22678;-80
2023/12/31 08:56:00;;;;;;;17.10;15.40;;;;;;;3.78;100.00;97614.49;106586;1283;25385;-80
2023/12/31 08:58:29;;;;;;;18.30;16.40;;;;;;;3.81;100.00;97615.89;106539;1283;25449;-80
2023/12/31 09:00:57;;;;;;;17.30;15.60;;;;;;;3.85;100.00;97614.80;106560;1270;22572;-80
2023/12/31 09:03:25;;;;;;;17.80;16.00;;;;;;;3.91;100.00;97613.25;106517;1283;22536;-80
2023/12/31 09:05:54;;;;;;;16.10;14.40;;;;;;;4.02;100.00;97611.32;106555;1283;22546;-80
2023/12/31 09:08:22;;;;;;;16.30;14.50;;;;;;;4.12;100.00;97607.02;106585;1283;23971;-80
2023/12/31 09:10:50;;;;;;;16.30;14.60;;;;;;;4.23;100.00;97606.12;106584;1270;22556;-80
2023/12/31 09:13:22;;;;;;;19.60;17.20;;;;;;;4.33;100.00;97602.77;106497;1283;22545;-79
2023/12/31 09:15:50;;;;;;;20.10;18.20;;;;;;;4.41;100.00;97599.37;106405;1270;22532;-80
2023/12/31 09:18:18;;;;;;;21.40;19.20;;;;;;;4.49;100.00;97596.34;106585;1268;22552;-80
2023/12/31 09:20:46;;;;;;;23.40;21.20;;;;;;;4.59;100.00;97595.64;106309;1270;25407;-80
2023/12/31 09:23:15;;;;;;;22.40;20.20;;;;;;;4.69;100.00;97588.27;106632;1268;22632;-82
2023/12/31 09:25:44;;;;;;;19.80;17.70;;;;;;;4.78;100.00;97587.64;106584;1280;24067;-81
2023/12/31 09:28:12;;;;;;;21.30;18.30;;;;;;;4.84;100.00;97586.17;106901;1271;22628;-81
2023/12/31 09:30:40;;;;;;;21.30;19.20;;;;;;;4.90;100.00;97586.70;106887;1283;22650;-80
2023/12/31 09:33:08;;;;;;;24.40;22.10;;;;;;;4.93;100.00;97579.81;106954;1283;25267;-80
2023/12/31 09:35:36;;;;;;;19.50;17.60;;;;;;;4.92;100.00;97575.43;106506;1283;24293;-80
2023/12/31 09:38:04;;;;;;;20.00;18.00;;;;;;;4.96;100.00;97574.46;106643;1283;24352;-81
2023/12/31 09:40:33;;;;;;;20.00;17.90;;;;;;;5.01;100.00;97566.23;106456;1273;24330;-81
2023/12/31 09:43:05;;;;;;;19.60;17.70;;;;;;;5.08;100.00;97567.60;106595;1272;22543;-81
2023/12/31 09:45:34;;;;;;;21.30;19.10;;;;;;;5.12;100.00;97566.69;106569;1283;25280;-81
2023/12/31 09:48:02;;;;;;;20.80;18.70;;;;;;;5.15;100.00;97565.23;106594;1283;23915;-80
2023/12/31 09:50:33;;;;;;;19.30;17.30;;;;;;;5.19;100.00;97563.04;106540;1272;22556;-79
2023/12/31 09:53:02;;;;;;;17.80;15.90;;;;;;;5.27;100.00;97562.10;106545;1273;147688;-80
2023/12/31 09:55:33;;;;;;;16.60;14.80;;;;;;;5.35;100.00;97557.00;106643;1272;23412;-80
2023/12/31 09:58:03;;;;;;;16.50;14.80;;;;;;;5.42;100.00;97551.31;106134;1283;22541;-80
2023/12/31 10:00:31;;;;;;;17.10;15.30;;;;;;;5.46;100.00;97548.08;106567;1283;22747;-81
2023/12/31 10:03:01;;;;;;;17.60;15.80;;;;;;;5.53;100.00;97537.75;106593;1270;24378;-79
2023/12/31 10:05:32;;;;;;;16.60;14.70;;;;;;;5.56;100.00;97531.37;106668;1268;24254;-79
2023/12/31 10:08:03;;;;;;;16.10;13.80;;;;;;;5.66;100.00;97528.64;106649;1260;25538;-80
2023/12/31 10:10:34;;;;;;;15.50;13.40;;;;;;;5.76;100.00;97527.36;106581;1271;22565;-79
2023/12/31 10:13:03;;;;;;;14.60;13.10;;;;;;;5.84;100.00;97528.86;106636;1283;22567;-80
2023/12/31 10:15:31;;;;;;;17.00;15.40;;;;;;;5.89;100.00;97528.45;106585;1273;22560;-79
2023/12/31 10:18:03;;;;;;;16.40;14.70;;;;;;;5.91;100.00;97528.23;106604;1283;25400;-79
2023/12/31 10:20:36;;;;;;;19.80;17.90;;;;;;;5.90;100.00;97523.80;106619;1283;22662;-80
2023/12/31 10:23:05;;;;;;;14.40;12.90;;;;;;;5.90;100.00;97519.79;106619;1283;24379;-80
2023/12/31 10:25:33;;;;;;;13.70;11.70;;;;;;;5.93;100.00;97516.20;106553;1283;24364;-79
2023/12/31 10:28:04;;;;;;;12.50;11.20;;;;;;;6.00;100.00;97514.98;106461;1283;22547;-79
2023/12/31 10:30:32;;;;;;;17.90;15.20;;;;;;;6.09;100.00;97514.19;106521;1283;22562;-80
2023/12/31 10:33:09;;;;;;;20.60;18.40;;;;;;;6.18;100.00;97507.53;106583;1270;24440;-81
2023/12/31 10:35:37;;;;;;;21.60;19.30;;;;;;;6.26;100.00;97501.41;106450;1270;22555;-82
2023/12/31 10:38:06;;;;;;;19.70;17.60;;;;;;;6.31;100.00;97499.52;106470;1283;22843;-80
2023/12/31 10:40:36;;;;;;;15.30;13.70;;;;;;;6.31;100.00;97491.48;106525;1277;25354;-80
2023/12/31 10:43:06;;;;;;;18.00;16.20;;;;;;;6.31;100.00;97491.05;106441;1270;22549;-80
2023/12/31 10:45:38;;;;;;;11.70;10.30;;;;;;;6.33;100.00;97486.64;106562;1277;22627;-81
2023/12/31 10:48:07;;;;;;;12.40;11.00;;;;;;;6.35;100.00;97485.14;106518;1283;22579;-81
2023/12/31 10:50:39;;;;;;;15.50;12.70;;;;;;;6.38;100.00;97479.70;106659;1282;24227;-80
2023/12/31 10:53:10;;;;;;;15.90;14.30;;;;;;;6.41;100.00;97470.04;106639;1283;22579;-79
2023/12/31 10:55:40;;;;;;;15.80;13.20;;;;;;;6.41;100.00;97465.75;106637;1270;22491;-79
2023/12/31 10:58:10;;;;;;;14.10;12.70;;;;;;;6.42;100.00;97456.65;106677;1283;25543;-79
2023/12/31 11:00:38;;;;;;;12.20;10.90;;;;;;;6.47;100.00;97459.19;106605;1276;24050;-79
2023/12/31 11:03:10;;;;;;;18.50;16.40;;;;;;;6.52;100.00;97455.48;106691;1282;22520;-80
2023/12/31 11:05:41;;;;;;;13.30;11.90;;;;;;;6.61;100.00;97454.15;106709;1277;24205;-79
2023/12/31 11:08:11;;;;;;;11.90;10.70;;;;;;;6.72;100.00;97453.41;106801;1283;22535;-80
2023/12/31 11:10:39;;;;;;;12.90;11.60;;;;;;;6.82;100.00;97453.09;106543;1273;22553;-79
2023/12/31 11:13:10;;;;;;;14.10;12.60;;;;;;;6.94;100.00;97440.30;106575;1277;22760;-79
2023/12/31 11:15:40;;;;;;;14.60;13.00;;;;;;;7.02;100.00;97444.61;106599;1274;24234;-79